createdAt,value
2018-11-11T08:02:03.300Z,26.87
2018-11-11T08:04:32.389Z,21.50
2018-11-11T08:07:01.460Z,22.10
2018-11-11T08:09:30.623Z,22.80
2018-11-11T08:12:01.791Z,20.27
2018-11-11T08:14:33.806Z,19.80
2018-11-11T08:17:02.898Z,20.20
2018-11-11T08:19:31.967Z,21.90
2018-11-11T08:22:03.423Z,19.67
2018-11-11T08:24:32.558Z,18.13
2018-11-11T08:27:04.613Z,21.40
2018-11-11T08:29:34.859Z,19.93
2018-11-11T08:32:05.718Z,20.27
2018-11-11T08:34:38.097Z,18.53
2018-11-11T08:37:07.256Z,18.60
2018-11-11T08:39:38.734Z,20.57
2018-11-11T08:42:21.164Z,17.40
2018-11-11T08:44:52.046Z,15.13
2018-11-11T08:47:24.945Z,17.67
2018-11-11T08:49:58.493Z,15.87
2018-11-11T08:52:27.454Z,14.27
2018-11-11T08:54:56.593Z,15.13
2018-11-11T08:57:25.777Z,16.10
2018-11-11T08:59:57.763Z,13.90
2018-11-11T09:02:30.443Z,15.03
2018-11-11T09:04:59.557Z,13.63
2018-11-11T09:07:30.429Z,13.63
2018-11-11T09:10:00.212Z,12.50
2018-11-11T09:12:29.883Z,13.47
2018-11-11T09:15:00.665Z,13.10
2018-11-11T09:17:30.832Z,14.40
2018-11-11T09:20:00.303Z,13.63
2018-11-11T09:22:29.514Z,13.40
2018-11-11T09:25:01.173Z,12.40
2018-11-11T09:27:31.460Z,12.13
2018-11-11T09:30:04.264Z,11.67
2018-11-11T09:32:33.436Z,12.87
2018-11-11T09:35:02.746Z,12.87
2018-11-11T09:37:37.603Z,12.67
2018-11-11T09:40:12.606Z,12.90
2018-11-11T09:42:47.927Z,11.67
2018-11-11T09:45:17.453Z,11.70
2018-11-11T09:47:48.972Z,11.00
2018-11-11T09:50:20.653Z,11.87
2018-11-11T09:52:49.696Z,12.13
2018-11-11T09:55:19.148Z,12.30
2018-11-11T09:57:50.749Z,10.93
2018-11-11T10:00:23.042Z,11.07
2018-11-11T10:04:59.870Z,11.10
2018-11-11T10:07:39.647Z,10.90
2018-11-11T10:10:27.540Z,10.40
2018-11-11T10:13:00.843Z,9.53
2018-11-11T10:15:37.941Z,8.80
2018-11-11T10:18:12.947Z,10.47
2018-11-11T10:20:49.443Z,10.23
2018-11-11T10:23:31.216Z,10.87
2018-11-11T10:27:09.139Z,10.43
2018-11-11T10:29:45.321Z,9.83
2018-11-11T10:32:32.036Z,10.77
2018-11-11T10:35:10.262Z,8.83
2018-11-11T10:37:45.758Z,9.60
2018-11-11T10:40:27.513Z,8.97
2018-11-11T10:45:04.558Z,9.67
2018-11-11T10:47:43.428Z,8.53
2018-11-11T10:50:25.806Z,9.80
2018-11-11T10:52:58.021Z,8.10
2018-11-11T10:55:27.298Z,8.87
2018-11-11T10:57:56.434Z,8.50
2018-11-11T11:00:29.035Z,8.60
2018-11-11T11:02:59.430Z,10.27
2018-11-11T11:05:30.331Z,9.40
2018-11-11T11:08:10.266Z,8.30
2018-11-11T11:10:39.580Z,9.17
2018-11-11T11:13:09.727Z,9.90
2018-11-11T11:15:38.945Z,8.00
2018-11-11T11:18:12.110Z,7.73
2018-11-11T11:20:41.239Z,8.70
2018-11-11T11:23:11.733Z,6.67
2018-11-11T11:25:44.622Z,9.13
2018-11-11T11:28:16.416Z,7.73
2018-11-11T11:30:45.642Z,7.87
2018-11-11T11:33:21.067Z,7.13
2018-11-11T11:35:50.267Z,6.57
2018-11-11T11:38:20.415Z,7.57
2018-11-11T11:40:51.734Z,7.17
2018-11-11T11:43:25.051Z,6.80
2018-11-11T11:45:54.306Z,7.90
2018-11-11T11:48:25.753Z,8.00
2018-11-11T11:50:57.646Z,7.30
2018-11-11T11:53:27.037Z,6.80
2018-11-11T11:55:56.383Z,8.70
2018-11-11T11:58:29.587Z,6.50
2018-11-11T12:01:02.020Z,8.10
2018-11-11T12:03:34.319Z,8.37
2018-11-11T12:06:05.643Z,7.13
2018-11-11T12:08:38.146Z,7.30
2018-11-11T12:11:12.359Z,7.17
2018-11-11T12:13:44.415Z,5.77
2018-11-11T12:16:18.858Z,5.83
2018-11-11T12:18:48.026Z,5.80
2018-11-11T12:21:17.466Z,6.50
2018-11-11T12:23:46.492Z,6.63
2018-11-11T12:26:17.381Z,5.57
2018-11-11T12:28:49.886Z,4.03
2018-11-11T12:31:19.378Z,5.10
2018-11-11T12:33:48.821Z,4.40
2018-11-11T12:36:20.234Z,5.73
2018-11-11T12:38:54.073Z,5.43
2018-11-11T12:41:26.244Z,5.40
2018-11-11T12:43:58.774Z,5.73
2018-11-11T12:46:28.025Z,4.37
2018-11-11T12:49:05.160Z,4.90
2018-11-11T12:51:37.592Z,4.23
2018-11-11T12:54:07.458Z,4.50
2018-11-11T12:56:38.807Z,4.37
2018-11-11T12:59:09.798Z,4.03
2018-11-11T13:01:42.556Z,3.53
2018-11-11T13:04:12.273Z,4.40
2018-11-11T13:06:43.625Z,3.67
2018-11-11T13:09:12.790Z,5.27
2018-11-11T13:11:46.919Z,6.03
2018-11-11T13:14:18.463Z,4.63
2018-11-11T13:16:49.404Z,4.80
2018-11-11T13:19:20.110Z,5.30
2018-11-11T13:24:32.778Z,5.80
2018-11-11T13:27:09.976Z,4.73
2018-11-11T13:29:43.359Z,6.37
2018-11-11T13:32:12.484Z,6.87
2018-11-11T13:34:41.665Z,7.23
2018-11-11T13:37:11.256Z,5.93
2018-11-11T13:39:43.400Z,7.33
2018-11-11T13:42:12.587Z,6.97
2018-11-11T13:44:42.050Z,6.73
2018-11-11T13:47:11.108Z,7.67
2018-11-11T13:49:45.835Z,6.57
2018-11-11T13:52:17.447Z,7.57
2018-11-11T13:54:46.441Z,7.40
2018-11-11T13:57:16.387Z,8.10
2018-11-11T13:59:45.603Z,8.67
2018-11-11T14:02:15.414Z,8.00
2018-11-11T14:04:47.560Z,10.03
2018-11-11T14:07:19.897Z,8.17
2018-11-11T14:09:49.020Z,8.83
2018-11-11T14:12:17.956Z,7.60
2018-11-11T14:14:49.360Z,8.37
2018-11-11T14:17:18.280Z,9.80
2018-11-11T14:19:47.443Z,8.80
2018-11-11T14:22:16.387Z,9.63
2018-11-11T14:24:45.630Z,9.50
2018-11-11T14:27:14.998Z,10.23
2018-11-11T14:29:44.245Z,11.17
2018-11-11T14:32:13.315Z,10.00
2018-11-11T14:34:42.497Z,10.40
2018-11-11T14:37:14.304Z,11.93
2018-11-11T14:39:44.683Z,11.07
2018-11-11T14:44:59.565Z,12.63
2018-11-11T14:47:28.713Z,11.50
2018-11-11T14:49:57.771Z,10.93
2018-11-11T14:52:29.298Z,11.67
2018-11-11T14:54:58.358Z,9.97
2018-11-11T14:57:27.318Z,13.80
2018-11-11T14:59:59.999Z,13.50
2018-11-11T15:02:28.991Z,11.13
2018-11-11T15:04:59.747Z,12.50
2018-11-11T15:07:28.749Z,11.30
2018-11-11T15:10:00.955Z,11.30
2018-11-11T15:12:29.869Z,12.03
2018-11-11T15:14:58.880Z,11.90
2018-11-11T15:17:32.270Z,12.50
2018-11-11T15:20:01.606Z,11.00
2018-11-11T15:22:30.546Z,11.73
2018-11-11T15:24:59.579Z,11.23
2018-11-11T15:27:33.433Z,10.50
2018-11-11T15:30:04.871Z,11.90
2018-11-11T15:32:33.847Z,11.03
2018-11-11T15:35:02.960Z,12.10
2018-11-11T15:37:31.998Z,12.50
2018-11-11T15:40:01.408Z,11.90
2018-11-11T15:42:33.621Z,12.47
2018-11-11T15:45:02.895Z,13.00
2018-11-11T15:47:32.753Z,12.60
2018-11-11T15:50:02.983Z,13.47
2018-11-11T15:52:35.685Z,13.07
2018-11-11T15:55:09.365Z,11.50
2018-11-11T15:57:38.559Z,13.47
2018-11-11T16:00:15.189Z,13.50
2018-11-11T16:02:44.547Z,13.23
2018-11-11T16:05:15.978Z,14.40
2018-11-11T16:07:47.488Z,15.00
2018-11-11T16:10:20.724Z,13.47
2018-11-11T16:12:50.054Z,14.30
2018-11-11T16:15:38.988Z,14.80
2018-11-11T16:18:09.985Z,14.27
2018-11-11T16:20:39.341Z,18.27
2018-11-11T16:23:12.691Z,18.17
2018-11-11T16:25:43.885Z,18.00
2018-11-11T16:28:18.280Z,20.83
2018-11-11T16:30:49.022Z,21.33
2018-11-11T16:33:19.401Z,20.77
2018-11-11T16:35:48.436Z,21.67
2018-11-11T16:38:20.668Z,20.40
2018-11-11T16:40:51.861Z,20.33
2018-11-11T16:43:23.053Z,21.40
2018-11-11T16:45:52.101Z,21.20
2018-11-11T16:48:21.151Z,19.27
2018-11-11T16:50:51.187Z,20.00
2018-11-11T16:53:21.998Z,18.87
2018-11-11T16:55:51.057Z,18.53
2018-11-11T16:58:20.148Z,20.00
2018-11-11T17:00:54.921Z,17.97
2018-11-11T17:03:27.996Z,17.80
2018-11-11T17:06:00.234Z,16.47
2018-11-11T17:08:29.627Z,17.50
2018-11-11T17:14:10.904Z,17.23
2018-11-11T17:16:40.018Z,17.67
2018-11-11T17:19:11.177Z,15.80
2018-11-11T17:21:41.896Z,17.57
2018-11-11T17:24:13.783Z,17.80
2018-11-11T17:26:45.854Z,17.80
2018-11-11T17:29:15.033Z,15.70
2018-11-11T17:31:49.221Z,17.77
2018-11-11T17:34:18.318Z,18.57
2018-11-11T17:36:51.102Z,16.10
2018-11-11T17:39:25.813Z,18.00
2018-11-11T17:42:02.197Z,17.57
2018-11-11T17:44:33.856Z,16.20
2018-11-11T17:47:02.929Z,16.70
2018-11-11T17:49:35.032Z,17.23
2018-11-11T17:52:04.288Z,15.50
2018-11-11T17:54:33.451Z,15.17
2018-11-11T17:57:04.527Z,16.97
2018-11-11T17:59:39.550Z,17.80
2018-11-11T18:02:10.343Z,15.80
2018-11-11T18:04:39.491Z,15.57
2018-11-11T18:07:08.533Z,14.60
2018-11-11T18:09:37.731Z,17.50
2018-11-11T18:12:09.097Z,17.17
2018-11-11T18:14:41.156Z,18.10
2018-11-11T18:17:10.492Z,16.73
2018-11-11T18:19:39.446Z,17.57
2018-11-11T18:22:10.546Z,16.27
2018-11-11T18:24:42.059Z,17.37
2018-11-11T18:27:13.630Z,15.53
2018-11-11T18:29:42.909Z,17.60
2018-11-11T18:32:11.793Z,16.10
2018-11-11T18:34:40.810Z,17.70
2018-11-11T18:37:12.679Z,16.57
2018-11-11T18:39:42.688Z,17.40
2018-11-11T18:42:11.697Z,18.20
2018-11-11T18:44:41.235Z,18.13
2018-11-11T18:47:12.551Z,18.30
2018-11-11T18:49:43.774Z,17.30
2018-11-11T18:52:16.430Z,16.47
2018-11-11T18:54:45.611Z,17.67
2018-11-11T18:57:14.552Z,18.10
2018-11-11T18:59:47.732Z,17.30
2018-11-11T19:02:19.516Z,17.80
2018-11-11T19:04:48.620Z,17.73
2018-11-11T19:07:17.943Z,17.43
2018-11-11T19:09:49.719Z,15.60
2018-11-11T19:12:18.736Z,16.47
2018-11-11T19:14:48.949Z,16.57
2018-11-11T19:17:21.969Z,18.47
2018-11-11T19:19:53.116Z,18.77
2018-11-11T19:22:27.601Z,17.10
2018-11-11T19:25:00.555Z,17.10
2018-11-11T19:27:31.737Z,17.27
2018-11-11T19:30:03.980Z,15.93
2018-11-11T19:32:33.153Z,17.53
2018-11-11T19:35:02.093Z,18.97
2018-11-11T19:37:31.956Z,17.67
2018-11-11T19:40:02.261Z,18.30
2018-11-11T19:42:31.273Z,17.77
2018-11-11T19:45:01.394Z,17.53
2018-11-11T19:47:35.137Z,19.17
2018-11-11T19:50:06.199Z,16.63
2018-11-11T19:52:41.758Z,16.63
2018-11-11T19:55:14.443Z,17.60
2018-11-11T19:57:43.910Z,16.17
2018-11-11T20:00:19.901Z,16.67
2018-11-11T20:02:51.025Z,16.87
2018-11-11T20:05:23.447Z,17.27
2018-11-11T20:07:53.773Z,17.80
2018-11-11T20:10:24.948Z,16.97
2018-11-11T20:12:54.821Z,17.43
2018-11-11T20:15:28.413Z,17.30
2018-11-11T20:18:00.320Z,17.50
2018-11-11T20:20:31.154Z,18.73
2018-11-11T20:23:03.527Z,17.20
2018-11-11T20:25:34.736Z,16.03
2018-11-11T20:28:04.801Z,16.47
2018-11-11T20:30:39.559Z,16.73
2018-11-11T20:33:12.907Z,14.63
2018-11-11T20:35:46.155Z,16.33
2018-11-11T20:38:16.379Z,17.27
2018-11-11T20:40:47.888Z,17.80
2018-11-11T20:43:21.642Z,15.57
2018-11-11T20:45:50.539Z,16.57
2018-11-11T20:48:23.593Z,15.80
2018-11-11T20:50:55.063Z,16.50
2018-11-11T20:53:24.704Z,17.20
2018-11-11T20:55:53.712Z,15.97
2018-11-11T20:58:25.732Z,16.00
2018-11-11T21:00:56.847Z,15.67
2018-11-11T21:03:30.115Z,16.30
2018-11-11T21:06:00.218Z,15.13
2018-11-11T21:08:29.562Z,15.10
2018-11-11T21:10:58.829Z,16.40
2018-11-11T21:13:28.946Z,14.30
2018-11-11T21:15:58.368Z,15.27
2018-11-11T21:18:29.933Z,16.20
2018-11-11T21:20:59.144Z,14.93
2018-11-11T21:23:30.092Z,16.97
2018-11-11T21:26:04.623Z,16.20
2018-11-11T21:28:35.353Z,15.10
2018-11-11T21:31:04.887Z,16.87
2018-11-11T21:33:39.871Z,17.27
2018-11-11T21:36:09.466Z,13.77
2018-11-11T21:38:41.301Z,14.47
2018-11-11T21:41:10.442Z,15.37
2018-11-11T21:43:39.603Z,15.47
2018-11-11T21:46:08.778Z,14.37
2018-11-11T21:48:41.477Z,14.00
2018-11-11T21:51:15.368Z,15.10
2018-11-11T21:53:44.334Z,14.23
2018-11-11T21:56:13.521Z,15.27
2018-11-11T21:58:43.441Z,14.40
2018-11-11T22:01:14.936Z,14.00
2018-11-11T22:03:47.017Z,13.90
2018-11-11T22:06:18.214Z,15.17
2018-11-11T22:08:47.353Z,14.57
2018-11-11T22:11:20.434Z,15.10
2018-11-11T22:13:53.215Z,13.37
2018-11-11T22:16:23.720Z,14.73
2018-11-11T22:18:54.797Z,15.80
2018-11-11T22:21:23.777Z,15.40
2018-11-11T22:23:52.691Z,14.83
2018-11-11T22:26:22.139Z,14.37
2018-11-11T22:28:54.266Z,13.80
2018-11-11T22:31:23.322Z,13.27
2018-11-11T22:33:52.408Z,13.97
2018-11-11T22:36:24.467Z,13.23
2018-11-11T22:38:54.314Z,13.80
2018-11-11T22:41:24.506Z,13.27
2018-11-11T22:43:53.578Z,13.70
2018-11-11T22:46:25.045Z,13.33
2018-11-11T22:48:53.844Z,13.13
2018-11-11T22:51:25.432Z,11.57
2018-11-11T22:53:54.886Z,12.37
2018-11-11T22:56:23.808Z,13.80
2018-11-11T22:58:52.809Z,13.07
2018-11-11T23:01:22.567Z,13.43
2018-11-11T23:03:54.873Z,12.50
2018-11-11T23:06:25.061Z,11.37
2018-11-11T23:08:54.293Z,11.77
2018-11-11T23:11:23.983Z,12.73
2018-11-11T23:13:53.558Z,13.43
2018-11-11T23:16:26.256Z,14.87
2018-11-11T23:18:55.329Z,13.27
2018-11-11T23:21:24.274Z,13.97
2018-11-11T23:23:53.108Z,13.93
2018-11-11T23:26:24.618Z,13.80
2018-11-11T23:28:54.555Z,14.50
2018-11-11T23:31:23.958Z,13.70
2018-11-11T23:33:53.676Z,14.00
2018-11-11T23:36:22.689Z,13.57
2018-11-11T23:38:51.641Z,14.97
2018-11-11T23:41:23.424Z,14.37
2018-11-11T23:43:53.316Z,15.03
2018-11-11T23:46:22.431Z,16.77
2018-11-11T23:48:53.497Z,15.50
2018-11-11T23:51:22.399Z,14.27
2018-11-11T23:53:53.848Z,16.97
2018-11-11T23:56:25.243Z,13.70
2018-11-11T23:58:55.788Z,14.60
